Cabot Strait: Past 24 Hour Conditions

 

Port aux Basques

12:30 AM NST 27 November 2014
This table is a summary of hourly weather conditions for the past 24 hours.
Date / Time
(NST)
Wind(knots) Conditions Visibility(km) Pressure(kPa) Air tempC) Relative humidity(%) Dew pointC) Wind Chill
27 November 2014
0:30 NNE 4 Light Snow 0.6 102.0 -1 96 -1 -3
26 November 2014
23:30 NNW 6 Light Precipitation 0.6 102.1 0 96 -1 -4
22:30 WSW 4 Light Snow 3 102.2 1 85 -2 *
21:30 WNW 6 Clear 15 102.3 2 76 -2 *
20:30 WNW 7 Clear 15 102.3 2 76 -2 *
19:30 WNW 10 Clear 15 102.2 2 77 -2 *
18:30 NW 8 Clear 15 102.2 3 76 -1 *
17:30 NW 8 Clear 15 102.2 3 76 -1 *
16:30 NW 13 gust 19 Sunny 15 102.1 3 78 0 *
15:30 WNW 15 gust 20 Sunny 15 102.0 4 82 1 *
14:30 WNW 22 gust 27 Sunny 15 102.0 4 76 1 *
13:30 WNW 23 gust 30 Sunny 15 101.9 5 75 1 *
12:30 W 22 gust 28 Sunny 15 101.9 5 76 1 *
11:30 WNW 25 gust 31 Sunny 15 101.8 5 76 1 *
10:30 W 20 Sunny 15 101.8 5 80 2 *
9:30 W 20 Sunny 15 101.7 4 82 2 *
8:30 W 21 Sunny 15 101.6 4 84 2 *
7:30 W 25 gust 30 Clear 15 101.5 4 81 1 *
6:30 W 20 gust 25 Clear 15 101.4 4 80 1 *
5:30 W 22 Clear 15 101.4 5 77 1 *
4:30 W 25 gust 31 Mainly Clear 15 101.2 5 74 1 *
3:30 WSW 21 Mainly Clear 15 101.2 4 83 2 *
2:30 W 17 Mainly Clear 15 101.1 5 78 1 *
1:30 W 17 Clear 15 101.1 5 80 2 *
0:30 W 19 gust 24 Clear 15 100.9 5 82 2 *
 
Map of Atlantic - Newfoundland marine weather areas Southwestern Grand Banks - 44138 Banquereau - 44139 Tail of the Bank - 44140 Nickerson Bank - 44251 Northeast Burgeo Bank - 44255 Blanc-Sablon Airport Cap Whittle Chevery Natashquan Airport Heath Point Miscou Island Grand Étang Ingonish Beach North Mountain St.Paul Island J.A. Douglas McCurdy Sydney Airport Charlottetown Airport East Point North Cape Argentia Bonavista Burgeo Cape Race Corner Brook Daniel's Harbour Englee Ferolle Point La Scie Port aux Basques Rocky Harbour Sagona Island St. Anthony Airport St. John's Int'l Airport St. Lawrence Stephenville Airport Twillingate Winterland Wreckhouse Cartwright Airport Mary's Harbour Grates Cove Pool's Island Marticot Island Long Pond Îles de la Madeleine Airport
Legend: buoyBuoy land stationLand Station